»·PEaware :: N54073 KHLN-KBIL

N54073 :: KHLN-KBIL

FLIGHT INFORMATION

Flight Status: Arrived
Operator: Privately registered:
United States
More flights under this callsign
Pilot: Anonymous 27411 (27411)
Aircraft: BEECH AIRCRAFT BARON
(BE58)
More flights by this aircraft type
Origin: KHLN Helena Regl
United States
Destination: KBIL Billings Logan Intl
United States
More flights between these airports :: More routes between these airports
Route: DIVD1 HLN V247 BIL
File this flight plan on PilotEdge
Remarks: thank you!
Altitude:
(Current/Filed)
10,000ft
Speed:
(Current/Filed)
175kts
Departed: 22-Nov-21 05:18 PM
Arrived: 22-Nov-21 06:22 PM
Distance/Time
Traveled:
151nm/1:04
Distance/Time
To Go:
Arrived

Flight Plot

Page will automatically refresh every two minutes.

Flight plan parsing failed; only flown route is shown


Map Options




Map Legend


Flown Route
Filed Route
Departure Airport
Arrival Airport
Navaid (VOR, NDB)
Fix

Horizontal Profiles

Position Reports

Time Latitude Longitude Heading Altitude Ground
Speed
22-Nov-21 16:54 46.603362 -111.997100 269 3879ft 0kts
22-Nov-21 16:55 46.603362 -111.997100 269 3879ft 0kts
22-Nov-21 16:56 46.603362 -111.997100 269 3879ft 0kts
22-Nov-21 16:57 46.603362 -111.997100 269 3879ft 0kts
22-Nov-21 16:58 46.603362 -111.997100 269 3879ft 0kts
22-Nov-21 16:59 46.603362 -111.997100 269 3879ft 0kts
22-Nov-21 17:00 46.603362 -111.997100 269 3879ft 0kts
22-Nov-21 17:01 46.603362 -111.997100 269 3879ft 0kts
22-Nov-21 17:02 46.603416 -111.997183 324 3879ft 2kts
22-Nov-21 17:03 46.603208 -111.995769 80 3879ft 9kts
22-Nov-21 17:04 46.603256 -111.992077 91 3879ft 12kts
22-Nov-21 17:05 46.603455 -111.985986 82 3879ft 16kts
22-Nov-21 17:06 46.603608 -111.978604 95 3879ft 19kts
22-Nov-21 17:07 46.602989 -111.970751 99 3879ft 18kts
22-Nov-21 17:08 46.602077 -111.965083 103 3879ft 11kts
22-Nov-21 17:09 46.602018 -111.963492 56 3879ft 0kts
22-Nov-21 17:10 46.602018 -111.963492 56 3879ft 0kts
22-Nov-21 17:11 46.602018 -111.963492 56 3879ft 0kts
22-Nov-21 17:12 46.602018 -111.963492 56 3879ft 0kts
22-Nov-21 17:13 46.602018 -111.963492 56 3879ft 0kts
22-Nov-21 17:14 46.602018 -111.963492 56 3879ft 0kts
22-Nov-21 17:15 46.602018 -111.963492 56 3879ft 0kts
22-Nov-21 17:16 46.602543 -111.963062 8 3879ft 6kts
22-Nov-21 17:17 46.606246 -111.985517 279 4185ft 119kts
22-Nov-21 17:18 46.626989 -112.016536 5 5694ft 119kts
22-Nov-21 17:19 46.656617 -111.992987 5 7076ft 118kts
22-Nov-21 17:20 46.685758 -112.008138 6 8308ft 122kts
22-Nov-21 17:21 46.690733 -111.963214 123 9579ft 132kts
22-Nov-21 17:22 46.659922 -111.952749 188 10030ft 137kts
22-Nov-21 17:23 46.619904 -111.950523 184 10319ft 127kts
22-Nov-21 17:24 46.598379 -111.908696 108 11036ft 165kts
22-Nov-21 17:25 46.585906 -111.837928 112 10994ft 197kts
22-Nov-21 17:26 46.567769 -111.763310 120 11152ft 193kts
22-Nov-21 17:27 46.551294 -111.685515 111 11105ft 199kts
22-Nov-21 17:28 46.533828 -111.606709 94 10888ft 210kts
22-Nov-21 17:29 46.541960 -111.523068 73 10857ft 208kts
22-Nov-21 17:30 46.567483 -111.450064 59 10946ft 203kts
22-Nov-21 17:31 46.594109 -111.377435 51 10952ft 205kts
22-Nov-21 17:32 46.610939 -111.298646 85 10844ft 210kts
22-Nov-21 17:33 46.613810 -111.216687 92 10912ft 208kts
22-Nov-21 17:34 46.615733 -111.133003 82 10946ft 207kts
22-Nov-21 17:35 46.618018 -111.049857 90 10922ft 208kts
22-Nov-21 17:36 46.622453 -110.965905 88 10899ft 209kts
22-Nov-21 17:37 46.625990 -110.882475 87 10959ft 208kts
22-Nov-21 17:38 46.629428 -110.798729 79 11087ft 202kts
22-Nov-21 17:39 46.619724 -110.716442 95 10998ft 210kts
22-Nov-21 17:40 46.619165 -110.630603 93 10991ft 210kts
22-Nov-21 17:41 46.598279 -110.553181 118 10966ft 206kts
22-Nov-21 17:42 46.571968 -110.481187 126 10984ft 204kts
22-Nov-21 17:43 46.545816 -110.407427 129 10979ft 202kts
22-Nov-21 17:44 46.516048 -110.338708 126 11055ft 201kts
22-Nov-21 17:45 46.486681 -110.268426 128 11000ft 201kts
22-Nov-21 17:46 46.458703 -110.197143 132 10962ft 200kts
22-Nov-21 17:47 46.430311 -110.125606 127 10918ft 205kts
22-Nov-21 17:48 46.403103 -110.053114 122 10895ft 213kts
22-Nov-21 17:49 46.377866 -109.977253 124 10912ft 207kts
22-Nov-21 17:50 46.346395 -109.908677 131 10942ft 204kts
22-Nov-21 17:51 46.317323 -109.837342 126 10931ft 207kts
22-Nov-21 17:52 46.288858 -109.765539 125 11008ft 204kts
22-Nov-21 17:53 46.258441 -109.695958 129 10967ft 208kts
22-Nov-21 17:54 46.227844 -109.626338 122 11020ft 209kts
22-Nov-21 17:55 46.199683 -109.553603 125 11126ft 202kts
22-Nov-21 17:56 46.170983 -109.480890 120 11015ft 210kts
22-Nov-21 17:57 46.142241 -109.408788 130 11008ft 206kts
22-Nov-21 17:58 46.114425 -109.335869 128 11047ft 205kts
22-Nov-21 17:59 46.083987 -109.266690 128 11073ft 202kts
22-Nov-21 18:00 46.056785 -109.193079 130 10821ft 202kts
22-Nov-21 18:01 46.027612 -109.120736 134 9884ft 220kts
22-Nov-21 18:02 45.996860 -109.045701 130 8857ft 216kts
22-Nov-21 18:03 45.964503 -108.974073 127 7957ft 209kts
22-Nov-21 18:04 45.933265 -108.904733 127 7172ft 208kts
22-Nov-21 18:05 45.903647 -108.835967 129 7040ft 198kts
22-Nov-21 18:06 45.875720 -108.768573 123 7046ft 197kts
22-Nov-21 18:07 45.847439 -108.702430 129 7031ft 196kts
22-Nov-21 18:09 45.817836 -108.638130 128 7089ft 195kts
22-Nov-21 18:10 45.806325 -108.562969 103 7190ft 197kts
22-Nov-21 18:11 45.796353 -108.484246 97 7095ft 202kts
22-Nov-21 18:12 45.792252 -108.412969 101 7088ft 158kts
22-Nov-21 18:13 45.787629 -108.353877 97 6574ft 156kts
22-Nov-21 18:14 45.803930 -108.300827 41 5750ft 150kts
22-Nov-21 18:15 45.814694 -108.252563 144 5784ft 133kts
22-Nov-21 18:16 45.796201 -108.274072 254 5390ft 116kts
22-Nov-21 18:17 45.792604 -108.320241 259 5274ft 114kts
22-Nov-21 18:18 45.790030 -108.365778 270 5219ft 119kts
22-Nov-21 18:19 45.791497 -108.413172 273 4591ft 125kts
22-Nov-21 18:20 45.794506 -108.461194 274 4106ft 107kts
22-Nov-21 18:21 45.799434 -108.506508 287 3835ft 119kts
22-Nov-21 18:22 45.806850 -108.533985 300 3655ft 30kts
22-Nov-21 18:23 45.806772 -108.537607 205 3655ft 0kts
22-Nov-21 18:24 45.805364 -108.539816 241 3655ft 18kts

Navigation Log

Ident Type
Flight plan parsing failed, navigation log unavailable